Virgo Phoenix — 3FMO8 — position and weather

sailwx.info

Track history (hours):
 
Tides and Currents Weather Stations Pressure Air Temp Water Temp Dewpoint Dewpoint Depression Visibility Wind Speed Wind Dir Waves Ship Positions

Virgo Phoenix

Last reported at 2014-Jul-29 08:04 UTC. Time now 2014-Jul-31 03:25 UTC.
Position N 34°55' E 139°26'.

Length 96 m; draft 5.1 m.

Type: Ship (hazmat cat B). MMSI: 370795000.

Date/timePositionNaut miles runAvg speedWind from/ knotsBaromVisibWave heightAir tempDewpointWater temp
2014-Jul-29 08:04N 34°55' E 139°26'713.5
2014-Jul-29 07:33N 34°60' E 139°32'1413.5
2014-Jul-29 06:33N 35°09' E 139°44'1111.0
2014-Jul-29 05:34N 35°20' E 139°42'4 4.0
2014-Jul-29 04:31N 35°23' E 139°39'0 0.0
2014-Jul-29 03:31N 35°23' E 139°39'0 0.0
2014-Jul-29 02:31N 35°23' E 139°39'0 0.0
2014-Jul-29 01:31N 35°23' E 139°39'1 1.4
2014-Jul-29 00:33N 35°22' E 139°40'0 0.1
2014-Jul-28 23:33N 35°22' E 139°40'0 0.0
2014-Jul-28 22:33N 35°22' E 139°40'0 0.0
2014-Jul-28 21:33N 35°22' E 139°40'0 0.0
2014-Jul-28 20:33N 35°22' E 139°40'0 0.0
2014-Jul-28 19:33N 35°22' E 139°40'0 0.0
2014-Jul-28 18:30N 35°22' E 139°40'0 0.0
2014-Jul-28 17:33N 35°22' E 139°40'0 0.0
2014-Jul-28 16:33N 35°22' E 139°40'0 0.1
2014-Jul-28 15:33N 35°22' E 139°40'0 0.0
2014-Jul-28 14:33N 35°22' E 139°40'0 0.0
2014-Jul-28 13:33N 35°22' E 139°40'0 0.0
2014-Jul-28 12:33N 35°22' E 139°40'0 0.0
2014-Jul-28 11:30N 35°22' E 139°40'1 0.8
2014-Jul-28 10:33N 35°23' E 139°41'1212.0
2014-Jul-28 09:33N 35°30' E 139°53'1110.6
2014-Jul-28 08:33N 35°40' E 139°57'1 0.6
2014-Jul-28 07:28N 35°40' E 139°56'0 0.0
2014-Jul-28 06:33N 35°40' E 139°56'8 8.0
2014-Jul-28 05:33N 35°32' E 139°57'1413.7
2014-Jul-28 04:33N 35°23' E 139°46'1110.6
2014-Jul-28 03:34N 35°12' E 139°47'1313.5
2014-Jul-28 02:34N 35°01' E 139°38'23511.8
2014-Jul-27 06:33N 34°10' E 134°59'1515.4
2014-Jul-27 05:33N 34°25' E 135°02'1414.3
2014-Jul-27 04:34N 34°38' E 135°09'1 0.1
2014-Jul-26 23:33N 34°39' E 135°10'0 0.4
2014-Jul-26 22:26N 34°38' E 135°10'0 0.1
2014-Jul-26 21:26N 34°38' E 135°10'0 0.0
2014-Jul-26 20:32N 34°38' E 135°10'0 0.0
2014-Jul-26 19:32N 34°38' E 135°10'0 0.0
2014-Jul-26 18:32N 34°38' E 135°10'0 0.2
2014-Jul-26 17:33N 34°38' E 135°10'1110.1
2014-Jul-26 16:31N 34°36' E 134°57'  
2014-Jul-22 23:33N 36°01' E 120°22'1 0.1
2014-Jul-22 10:13N 36°01' E 120°21'7 9.8
2014-Jul-22 09:32N 35°60' E 120°30'  
2014-Jul-19 15:05N 35°39' E 120°55'713.8
2014-Jul-19 14:33N 35°32' E 120°56'2512.2
2014-Jul-19 12:31N 35°12' E 120°37'1313.6
2014-Jul-19 11:33N 35°06' E 120°23'1313.2
2014-Jul-19 10:33N 35°03' E 120°07'1413.6
2014-Jul-19 09:33N 35°04' E 119°51'1313.3
2014-Jul-19 08:33N 35°03' E 119°35'  
Track history (hours):
 
Tides and Currents Weather Stations Pressure Air Temp Water Temp Dewpoint Dewpoint Depression Visibility Wind Speed Wind Dir Waves Ship Positions

Virgo Phoenix

Last reported at 2014-Jul-29 08:04 UTC. Time now 2014-Jul-31 03:25 UTC.
Position N 34°55' E 139°26'.

Length 96 m; draft 5.1 m.

Type: Ship (hazmat cat B). MMSI: 370795000.

Date/timePositionNaut miles runAvg speedWind from/ knotsBaromVisibWave heightAir tempDewpointWater temp
2014-Jul-29 08:04N 34°55' E 139°26'713.5
2014-Jul-29 07:33N 34°60' E 139°32'1413.5
2014-Jul-29 06:33N 35°09' E 139°44'1111.0
2014-Jul-29 05:34N 35°20' E 139°42'4 4.0
2014-Jul-29 04:31N 35°23' E 139°39'0 0.0
2014-Jul-29 03:31N 35°23' E 139°39'0 0.0
2014-Jul-29 02:31N 35°23' E 139°39'0 0.0
2014-Jul-29 01:31N 35°23' E 139°39'1 1.4
2014-Jul-29 00:33N 35°22' E 139°40'0 0.1
2014-Jul-28 23:33N 35°22' E 139°40'0 0.0
2014-Jul-28 22:33N 35°22' E 139°40'0 0.0
2014-Jul-28 21:33N 35°22' E 139°40'0 0.0
2014-Jul-28 20:33N 35°22' E 139°40'0 0.0
2014-Jul-28 19:33N 35°22' E 139°40'0 0.0
2014-Jul-28 18:30N 35°22' E 139°40'0 0.0
2014-Jul-28 17:33N 35°22' E 139°40'0 0.0
2014-Jul-28 16:33N 35°22' E 139°40'0 0.1
2014-Jul-28 15:33N 35°22' E 139°40'0 0.0
2014-Jul-28 14:33N 35°22' E 139°40'0 0.0
2014-Jul-28 13:33N 35°22' E 139°40'0 0.0
2014-Jul-28 12:33N 35°22' E 139°40'0 0.0
2014-Jul-28 11:30N 35°22' E 139°40'1 0.8
2014-Jul-28 10:33N 35°23' E 139°41'1212.0
2014-Jul-28 09:33N 35°30' E 139°53'1110.6
2014-Jul-28 08:33N 35°40' E 139°57'1 0.6
2014-Jul-28 07:28N 35°40' E 139°56'0 0.0
2014-Jul-28 06:33N 35°40' E 139°56'8 8.0
2014-Jul-28 05:33N 35°32' E 139°57'1413.7
2014-Jul-28 04:33N 35°23' E 139°46'1110.6
2014-Jul-28 03:34N 35°12' E 139°47'1313.5
2014-Jul-28 02:34N 35°01' E 139°38'23511.8
2014-Jul-27 06:33N 34°10' E 134°59'1515.4
2014-Jul-27 05:33N 34°25' E 135°02'1414.3
2014-Jul-27 04:34N 34°38' E 135°09'1 0.1
2014-Jul-26 23:33N 34°39' E 135°10'0 0.4
2014-Jul-26 22:26N 34°38' E 135°10'0 0.1
2014-Jul-26 21:26N 34°38' E 135°10'0 0.0
2014-Jul-26 20:32N 34°38' E 135°10'0 0.0
2014-Jul-26 19:32N 34°38' E 135°10'0 0.0
2014-Jul-26 18:32N 34°38' E 135°10'0 0.2
2014-Jul-26 17:33N 34°38' E 135°10'1110.1
2014-Jul-26 16:31N 34°36' E 134°57'  
2014-Jul-22 23:33N 36°01' E 120°22'1 0.1
2014-Jul-22 10:13N 36°01' E 120°21'7 9.8
2014-Jul-22 09:32N 35°60' E 120°30'  
2014-Jul-19 15:05N 35°39' E 120°55'713.8
2014-Jul-19 14:33N 35°32' E 120°56'2512.2
2014-Jul-19 12:31N 35°12' E 120°37'1313.6
2014-Jul-19 11:33N 35°06' E 120°23'1313.2
2014-Jul-19 10:33N 35°03' E 120°07'1413.6
2014-Jul-19 09:33N 35°04' E 119°51'1313.3
2014-Jul-19 08:33N 35°03' E 119°35'  

Dump ship's entire track history